sensor_id;sensor_type;location;lat;lon;timestamp;pressure;altitude;pressure_sealevel;temperature;humidity
60976;BME280;46849;48.154;17.042;2022-12-18T00:02:30;100214.44;;;-4.08;99.14
60976;BME280;46849;48.154;17.042;2022-12-18T00:05:15;100208.38;;;-4.13;99.81
60976;BME280;46849;48.154;17.042;2022-12-18T00:08:00;100211.75;;;-4.14;99.95
60976;BME280;46849;48.154;17.042;2022-12-18T00:10:45;100215.97;;;-4.19;100.00
60976;BME280;46849;48.154;17.042;2022-12-18T00:13:30;100204.88;;;-4.18;100.00
60976;BME280;46849;48.154;17.042;2022-12-18T00:16:19;100211.72;;;-4.17;100.00
60976;BME280;46849;48.154;17.042;2022-12-18T00:19:04;100214.84;;;-4.36;100.00
60976;BME280;46849;48.154;17.042;2022-12-18T00:21:49;100219.88;;;-4.42;100.00
60976;BME280;46849;48.154;17.042;2022-12-18T00:24:33;100204.19;;;-4.64;100.00
60976;BME280;46849;48.154;17.042;2022-12-18T00:27:18;100208.63;;;-4.52;100.00
60976;BME280;46849;48.154;17.042;2022-12-18T00:30:03;100206.13;;;-4.49;100.00
60976;BME280;46849;48.154;17.042;2022-12-18T00:32:48;100201.81;;;-4.51;100.00
60976;BME280;46849;48.154;17.042;2022-12-18T00:35:33;100183.78;;;-4.59;100.00
60976;BME280;46849;48.154;17.042;2022-12-18T00:38:18;100189.19;;;-4.40;100.00
60976;BME280;46849;48.154;17.042;2022-12-18T00:41:04;100177.78;;;-4.61;100.00
60976;BME280;46849;48.154;17.042;2022-12-18T00:43:52;100181.31;;;-4.54;100.00
60976;BME280;46849;48.154;17.042;2022-12-18T00:46:37;100159.94;;;-4.57;100.00
60976;BME280;46849;48.154;17.042;2022-12-18T00:49:22;100161.56;;;-4.62;100.00
60976;BME280;46849;48.154;17.042;2022-12-18T00:52:07;100167.47;;;-4.66;100.00
60976;BME280;46849;48.154;17.042;2022-12-18T00:54:52;100185.44;;;-4.61;100.00
60976;BME280;46849;48.154;17.042;2022-12-18T00:57:37;100207.94;;;-4.41;100.00
60976;BME280;46849;48.154;17.042;2022-12-18T01:00:22;100222.88;;;-4.14;100.00
60976;BME280;46849;48.154;17.042;2022-12-18T01:03:07;100228.91;;;-4.10;100.00
60976;BME280;46849;48.154;17.042;2022-12-18T01:05:52;100231.69;;;-3.93;100.00
60976;BME280;46849;48.154;17.042;2022-12-18T01:08:37;100238.03;;;-3.69;100.00
60976;BME280;46849;48.154;17.042;2022-12-18T01:11:24;100235.72;;;-3.49;100.00
60976;BME280;46849;48.154;17.042;2022-12-18T01:14:09;100235.66;;;-3.53;100.00
60976;BME280;46849;48.154;17.042;2022-12-18T01:16:55;100230.41;;;-3.64;100.00
60976;BME280;46849;48.154;17.042;2022-12-18T01:19:40;100238.03;;;-3.69;100.00
60976;BME280;46849;48.154;17.042;2022-12-18T01:22:27;100238.97;;;-3.61;100.00
60976;BME280;46849;48.154;17.042;2022-12-18T01:25:12;100239.16;;;-3.48;100.00
60976;BME280;46849;48.154;17.042;2022-12-18T01:27:56;100242.84;;;-3.24;100.00
60976;BME280;46849;48.154;17.042;2022-12-18T01:30:43;100240.06;;;-3.43;100.00
60976;BME280;46849;48.154;17.042;2022-12-18T01:33:29;100242.69;;;-3.38;100.00
60976;BME280;46849;48.154;17.042;2022-12-18T01:36:22;100245.22;;;-3.40;100.00
60976;BME280;46849;48.154;17.042;2022-12-18T01:39:11;100255.66;;;-3.26;100.00
60976;BME280;46849;48.154;17.042;2022-12-18T01:42:05;100250.66;;;-3.81;99.45
60976;BME280;46849;48.154;17.042;2022-12-18T01:47:54;100261.88;;;-3.72;100.00
60976;BME280;46849;48.154;17.042;2022-12-18T01:50:41;100278.81;;;-3.83;98.86
60976;BME280;46849;48.154;17.042;2022-12-18T01:53:28;100278.75;;;-3.88;99.83
60976;BME280;46849;48.154;17.042;2022-12-18T01:56:15;100269.13;;;-4.03;99.20
60976;BME280;46849;48.154;17.042;2022-12-18T01:59:03;100273.56;;;-3.91;99.97
60976;BME280;46849;48.154;17.042;2022-12-18T02:01:49;100276.13;;;-3.92;100.00
60976;BME280;46849;48.154;17.042;2022-12-18T02:04:34;100274.75;;;-4.24;100.00
60976;BME280;46849;48.154;17.042;2022-12-18T02:13:38;100291.72;;;-4.33;100.00
60976;BME280;46849;48.154;17.042;2022-12-18T02:28:42;100310.06;;;-4.55;100.00
60976;BME280;46849;48.154;17.042;2022-12-18T02:31:33;100320.94;;;-4.19;100.00
60976;BME280;46849;48.154;17.042;2022-12-18T02:34:22;100318.81;;;-3.91;100.00
60976;BME280;46849;48.154;17.042;2022-12-18T02:37:12;100325.59;;;-3.95;100.00
60976;BME280;46849;48.154;17.042;2022-12-18T02:39:59;100317.19;;;-3.86;100.00
60976;BME280;46849;48.154;17.042;2022-12-18T02:42:44;100325.41;;;-4.06;100.00
60976;BME280;46849;48.154;17.042;2022-12-18T02:45:32;100316.47;;;-4.31;100.00
60976;BME280;46849;48.154;17.042;2022-12-18T02:48:18;100321.22;;;-4.50;100.00
60976;BME280;46849;48.154;17.042;2022-12-18T02:51:19;100330.97;;;-4.30;100.00
60976;BME280;46849;48.154;17.042;2022-12-18T02:54:20;100330.63;;;-4.00;100.00
60976;BME280;46849;48.154;17.042;2022-12-18T03:00:19;100339.44;;;-4.35;100.00
60976;BME280;46849;48.154;17.042;2022-12-18T03:03:11;100345.78;;;-4.60;100.00
60976;BME280;46849;48.154;17.042;2022-12-18T03:06:04;100344.63;;;-4.31;100.00
60976;BME280;46849;48.154;17.042;2022-12-18T03:08:56;100347.44;;;-4.14;100.00
60976;BME280;46849;48.154;17.042;2022-12-18T03:11:50;100354.53;;;-4.01;100.00
60976;BME280;46849;48.154;17.042;2022-12-18T03:18:08;100357.84;;;-4.06;100.00
60976;BME280;46849;48.154;17.042;2022-12-18T03:20:58;100352.38;;;-4.27;100.00
60976;BME280;46849;48.154;17.042;2022-12-18T03:23:49;100349.94;;;-4.19;100.00
60976;BME280;46849;48.154;17.042;2022-12-18T03:26:41;100355.16;;;-4.13;100.00
60976;BME280;46849;48.154;17.042;2022-12-18T03:29:40;100349.81;;;-4.27;100.00
60976;BME280;46849;48.154;17.042;2022-12-18T03:32:35;100343.97;;;-4.19;100.00
60976;BME280;46849;48.154;17.042;2022-12-18T03:35:28;100345.63;;;-4.23;100.00
60976;BME280;46849;48.154;17.042;2022-12-18T03:38:14;100340.97;;;-4.45;100.00
60976;BME280;46849;48.154;17.042;2022-12-18T03:44:51;100340.63;;;-4.15;100.00
60976;BME280;46849;48.154;17.042;2022-12-18T03:56:13;100345.06;;;-4.06;100.00
60976;BME280;46849;48.154;17.042;2022-12-18T03:59:02;100357.09;;;-3.99;100.00
60976;BME280;46849;48.154;17.042;2022-12-18T04:01:52;100362.19;;;-4.01;100.00
60976;BME280;46849;48.154;17.042;2022-12-18T04:04:38;100359.69;;;-3.98;100.00
60976;BME280;46849;48.154;17.042;2022-12-18T04:07:25;100361.50;;;-3.92;100.00
60976;BME280;46849;48.154;17.042;2022-12-18T04:10:11;100359.84;;;-3.88;100.00
60976;BME280;46849;48.154;17.042;2022-12-18T04:12:57;100364.09;;;-3.90;100.00
60976;BME280;46849;48.154;17.042;2022-12-18T04:15:42;100367.41;;;-3.94;100.00
60976;BME280;46849;48.154;17.042;2022-12-18T04:18:33;100370.78;;;-3.99;100.00
60976;BME280;46849;48.154;17.042;2022-12-18T04:21:19;100381.47;;;-3.72;100.00
60976;BME280;46849;48.154;17.042;2022-12-18T04:24:06;100383.44;;;-3.52;100.00
60976;BME280;46849;48.154;17.042;2022-12-18T04:26:53;100392.88;;;-3.53;100.00
60976;BME280;46849;48.154;17.042;2022-12-18T04:29:44;100390.94;;;-3.66;100.00
60976;BME280;46849;48.154;17.042;2022-12-18T04:32:29;100397.34;;;-3.93;100.00
60976;BME280;46849;48.154;17.042;2022-12-18T04:35:14;100399.66;;;-4.06;100.00
60976;BME280;46849;48.154;17.042;2022-12-18T04:38:03;100404.41;;;-4.28;100.00
60976;BME280;46849;48.154;17.042;2022-12-18T04:40:47;100407.06;;;-4.23;100.00
60976;BME280;46849;48.154;17.042;2022-12-18T04:43:39;100406.13;;;-4.27;100.00
60976;BME280;46849;48.154;17.042;2022-12-18T04:46:25;100417.22;;;-4.28;100.00
60976;BME280;46849;48.154;17.042;2022-12-18T04:49:10;100418.31;;;-4.15;100.00
60976;BME280;46849;48.154;17.042;2022-12-18T04:51:58;100419.47;;;-3.97;100.00
60976;BME280;46849;48.154;17.042;2022-12-18T04:54:43;100423.16;;;-3.81;100.00
60976;BME280;46849;48.154;17.042;2022-12-18T04:57:27;100420.41;;;-3.93;100.00
60976;BME280;46849;48.154;17.042;2022-12-18T05:00:12;100423.72;;;-3.98;100.00
60976;BME280;46849;48.154;17.042;2022-12-18T05:02:57;100424.66;;;-3.92;100.00
60976;BME280;46849;48.154;17.042;2022-12-18T05:05:42;100437.31;;;-4.02;100.00
60976;BME280;46849;48.154;17.042;2022-12-18T05:08:26;100447.50;;;-4.05;100.00
60976;BME280;46849;48.154;17.042;2022-12-18T05:11:14;100442.47;;;-4.00;100.00
60976;BME280;46849;48.154;17.042;2022-12-18T05:14:00;100452.63;;;-4.05;100.00
60976;BME280;46849;48.154;17.042;2022-12-18T05:16:44;100462.66;;;-4.14;100.00
60976;BME280;46849;48.154;17.042;2022-12-18T05:19:29;100455.97;;;-4.08;100.00
60976;BME280;46849;48.154;17.042;2022-12-18T05:22:14;100453.09;;;-4.26;100.00
60976;BME280;46849;48.154;17.042;2022-12-18T05:24:59;100460.31;;;-4.05;100.00
60976;BME280;46849;48.154;17.042;2022-12-18T05:27:43;100460.28;;;-4.06;100.00
60976;BME280;46849;48.154;17.042;2022-12-18T05:30:29;100460.06;;;-4.17;100.00
60976;BME280;46849;48.154;17.042;2022-12-18T05:33:14;100470.22;;;-4.22;100.00
60976;BME280;46849;48.154;17.042;2022-12-18T05:36:00;100462.06;;;-4.01;100.00
60976;BME280;46849;48.154;17.042;2022-12-18T05:38:45;100471.50;;;-3.98;100.00
60976;BME280;46849;48.154;17.042;2022-12-18T05:41:30;100474.97;;;-3.96;100.00
60976;BME280;46849;48.154;17.042;2022-12-18T05:44:14;100474.88;;;-4.01;100.00
60976;BME280;46849;48.154;17.042;2022-12-18T05:46:59;100469.66;;;-4.07;100.00
60976;BME280;46849;48.154;17.042;2022-12-18T05:49:43;100470.38;;;-4.13;100.00
60976;BME280;46849;48.154;17.042;2022-12-18T05:52:28;100474.59;;;-4.16;100.00
60976;BME280;46849;48.154;17.042;2022-12-18T05:55:13;100478.25;;;-4.47;100.00
60976;BME280;46849;48.154;17.042;2022-12-18T05:57:57;100476.34;;;-4.59;100.00
60976;BME280;46849;48.154;17.042;2022-12-18T06:00:44;100475.50;;;-4.58;100.00
60976;BME280;46849;48.154;17.042;2022-12-18T06:03:29;100480.22;;;-4.35;100.00
60976;BME280;46849;48.154;17.042;2022-12-18T06:06:19;100486.53;;;-4.17;100.00
60976;BME280;46849;48.154;17.042;2022-12-18T06:09:05;100486.25;;;-4.33;100.00
60976;BME280;46849;48.154;17.042;2022-12-18T06:11:53;100489.66;;;-4.30;100.00
60976;BME280;46849;48.154;17.042;2022-12-18T06:14:38;100492.34;;;-4.24;100.00
60976;BME280;46849;48.154;17.042;2022-12-18T06:17:23;100491.25;;;-4.37;100.00
60976;BME280;46849;48.154;17.042;2022-12-18T06:20:08;100502.44;;;-4.32;100.00
60976;BME280;46849;48.154;17.042;2022-12-18T06:22:52;100496.34;;;-4.37;100.00
60976;BME280;46849;48.154;17.042;2022-12-18T06:25:38;100498.22;;;-4.30;100.00
60976;BME280;46849;48.154;17.042;2022-12-18T06:28:23;100500.00;;;-4.26;100.00
60976;BME280;46849;48.154;17.042;2022-12-18T06:31:08;100490.50;;;-3.37;100.00
60976;BME280;46849;48.154;17.042;2022-12-18T06:33:52;100484.91;;;-3.64;100.00
60976;BME280;46849;48.154;17.042;2022-12-18T06:36:38;100501.75;;;-3.78;100.00
60976;BME280;46849;48.154;17.042;2022-12-18T06:39:23;100506.78;;;-3.83;100.00
60976;BME280;46849;48.154;17.042;2022-12-18T06:42:07;100516.97;;;-3.88;100.00
60976;BME280;46849;48.154;17.042;2022-12-18T06:44:52;100521.81;;;-4.02;100.00
60976;BME280;46849;48.154;17.042;2022-12-18T06:47:37;100521.78;;;-4.05;100.00
60976;BME280;46849;48.154;17.042;2022-12-18T06:50:22;100528.22;;;-3.79;100.00
60976;BME280;46849;48.154;17.042;2022-12-18T06:53:06;100522.81;;;-3.47;100.00
60976;BME280;46849;48.154;17.042;2022-12-18T06:55:52;100526.47;;;-3.31;100.00
60976;BME280;46849;48.154;17.042;2022-12-18T06:58:38;100535.94;;;-3.28;100.00
60976;BME280;46849;48.154;17.042;2022-12-18T07:01:23;100537.03;;;-3.14;100.00
60976;BME280;46849;48.154;17.042;2022-12-18T07:04:07;100548.00;;;-2.67;99.88
60976;BME280;46849;48.154;17.042;2022-12-18T07:06:52;100554.16;;;-2.54;96.57
60976;BME280;46849;48.154;17.042;2022-12-18T07:09:36;100561.88;;;-2.54;99.30
60976;BME280;46849;48.154;17.042;2022-12-18T07:12:21;100568.06;;;-2.38;96.23
60976;BME280;46849;48.154;17.042;2022-12-18T07:15:06;100576.66;;;-2.37;95.95
60976;BME280;46849;48.154;17.042;2022-12-18T07:17:51;100578.56;;;-2.22;93.94
60976;BME280;46849;48.154;17.042;2022-12-18T07:20:35;100577.31;;;-1.84;92.54
60976;BME280;46849;48.154;17.042;2022-12-18T07:23:20;100584.28;;;-1.75;90.31
60976;BME280;46849;48.154;17.042;2022-12-18T07:26:08;100594.69;;;-1.63;90.83
60976;BME280;46849;48.154;17.042;2022-12-18T07:28:55;100588.38;;;-1.03;89.19
60976;BME280;46849;48.154;17.042;2022-12-18T07:31:42;100586.00;;;-0.79;87.49
60976;BME280;46849;48.154;17.042;2022-12-18T07:34:26;100588.22;;;-1.25;90.13
60976;BME280;46849;48.154;17.042;2022-12-18T07:37:11;100593.69;;;-0.84;93.73
60976;BME280;46849;48.154;17.042;2022-12-18T07:39:56;100605.03;;;-0.58;89.34
60976;BME280;46849;48.154;17.042;2022-12-18T07:42:41;100610.28;;;-0.46;89.71
60976;BME280;46849;48.154;17.042;2022-12-18T07:45:25;100621.81;;;0.33;90.70
60976;BME280;46849;48.154;17.042;2022-12-18T07:48:10;100617.63;;;0.77;86.00
60976;BME280;46849;48.154;17.042;2022-12-18T07:51:02;100617.56;;;0.49;85.05
60976;BME280;46849;48.154;17.042;2022-12-18T07:53:48;100624.53;;;1.05;82.51
60976;BME280;46849;48.154;17.042;2022-12-18T07:56:33;100610.78;;;1.15;78.91
60976;BME280;46849;48.154;17.042;2022-12-18T07:59:18;100615.91;;;1.59;80.74
60976;BME280;46849;48.154;17.042;2022-12-18T08:02:03;100631.28;;;2.04;75.01
60976;BME280;46849;48.154;17.042;2022-12-18T08:04:47;100627.84;;;2.08;77.80
60976;BME280;46849;48.154;17.042;2022-12-18T08:07:32;100624.34;;;2.20;74.41
60976;BME280;46849;48.154;17.042;2022-12-18T08:10:16;100635.50;;;2.33;73.31
60976;BME280;46849;48.154;17.042;2022-12-18T08:13:01;100649.22;;;2.51;73.29
60976;BME280;46849;48.154;17.042;2022-12-18T08:15:46;100652.63;;;2.63;72.44
60976;BME280;46849;48.154;17.042;2022-12-18T08:18:32;100646.38;;;2.98;72.44
60976;BME280;46849;48.154;17.042;2022-12-18T08:21:20;100640.84;;;3.42;71.90
60976;BME280;46849;48.154;17.042;2022-12-18T08:24:06;100644.16;;;3.56;70.59
60976;BME280;46849;48.154;17.042;2022-12-18T08:26:51;100646.63;;;3.67;67.05
60976;BME280;46849;48.154;17.042;2022-12-18T08:29:35;100652.34;;;4.02;72.30
60976;BME280;46849;48.154;17.042;2022-12-18T08:32:20;100655.19;;;2.69;74.39
60976;BME280;46849;48.154;17.042;2022-12-18T08:35:05;100659.56;;;2.57;74.45
60976;BME280;46849;48.154;17.042;2022-12-18T08:37:50;100645.03;;;2.25;75.66
60976;BME280;46849;48.154;17.042;2022-12-18T08:40:35;100655.31;;;2.41;73.69
60976;BME280;46849;48.154;17.042;2022-12-18T08:43:20;100643.31;;;3.54;68.63
60976;BME280;46849;48.154;17.042;2022-12-18T08:46:25;100650.63;;;4.01;66.37
60976;BME280;46849;48.154;17.042;2022-12-18T08:49:11;100655.56;;;4.22;65.93
60976;BME280;46849;48.154;17.042;2022-12-18T08:51:56;100658.81;;;3.61;68.26
60976;BME280;46849;48.154;17.042;2022-12-18T08:54:44;100655.28;;;3.68;70.01
60976;BME280;46849;48.154;17.042;2022-12-18T08:57:28;100658.75;;;4.44;70.06
60976;BME280;46849;48.154;17.042;2022-12-18T09:00:13;100663.63;;;3.97;69.65
60976;BME280;46849;48.154;17.042;2022-12-18T09:02:57;100662.88;;;3.88;69.55
60976;BME280;46849;48.154;17.042;2022-12-18T09:05:43;100661.63;;;4.24;66.07
60976;BME280;46849;48.154;17.042;2022-12-18T09:08:29;100674.97;;;2.76;70.33
60976;BME280;46849;48.154;17.042;2022-12-18T09:11:19;100679.44;;;2.44;72.12
60976;BME280;46849;48.154;17.042;2022-12-18T09:14:04;100672.50;;;2.46;72.82
60976;BME280;46849;48.154;17.042;2022-12-18T09:16:49;100678.75;;;1.97;71.17
60976;BME280;46849;48.154;17.042;2022-12-18T09:19:34;100671.00;;;1.81;73.08
60976;BME280;46849;48.154;17.042;2022-12-18T09:22:19;100671.47;;;2.88;71.94
60976;BME280;46849;48.154;17.042;2022-12-18T09:25:04;100667.06;;;3.00;72.72
60976;BME280;46849;48.154;17.042;2022-12-18T09:27:52;100666.00;;;3.29;73.23
60976;BME280;46849;48.154;17.042;2022-12-18T09:30:42;100673.72;;;3.33;71.81
60976;BME280;46849;48.154;17.042;2022-12-18T09:33:27;100680.06;;;2.92;68.13
60976;BME280;46849;48.154;17.042;2022-12-18T09:36:14;100675.09;;;2.48;71.05
60976;BME280;46849;48.154;17.042;2022-12-18T09:38:58;100681.34;;;1.72;73.94
60976;BME280;46849;48.154;17.042;2022-12-18T09:41:57;100685.56;;;2.11;71.59
60976;BME280;46849;48.154;17.042;2022-12-18T09:44:49;100682.06;;;2.30;71.97
60976;BME280;46849;48.154;17.042;2022-12-18T09:47:37;100681.28;;;2.11;70.40
60976;BME280;46849;48.154;17.042;2022-12-18T09:50:34;100684.25;;;3.12;76.10
60976;BME280;46849;48.154;17.042;2022-12-18T09:53:22;100684.38;;;2.93;76.16
60976;BME280;46849;48.154;17.042;2022-12-18T09:56:12;100670.50;;;3.02;82.22
60976;BME280;46849;48.154;17.042;2022-12-18T09:59:02;100678.75;;;1.88;73.10
60976;BME280;46849;48.154;17.042;2022-12-18T10:01:48;100671.00;;;1.11;72.63
60976;BME280;46849;48.154;17.042;2022-12-18T10:04:32;100664.97;;;0.84;78.75
60976;BME280;46849;48.154;17.042;2022-12-18T10:07:25;100665.88;;;1.28;78.82
60976;BME280;46849;48.154;17.042;2022-12-18T10:10:38;100662.38;;;1.92;74.24
60976;BME280;46849;48.154;17.042;2022-12-18T10:13:39;100661.53;;;1.83;77.42
60976;BME280;46849;48.154;17.042;2022-12-18T10:20:09;100649.44;;;1.96;71.84
60976;BME280;46849;48.154;17.042;2022-12-18T10:23:03;100657.13;;;2.17;70.96
60976;BME280;46849;48.154;17.042;2022-12-18T10:25:59;100658.06;;;1.86;71.33
60976;BME280;46849;48.154;17.042;2022-12-18T10:28:46;100664.09;;;1.88;71.69
60976;BME280;46849;48.154;17.042;2022-12-18T10:31:30;100665.03;;;1.46;73.05
60976;BME280;46849;48.154;17.042;2022-12-18T10:34:15;100664.13;;;1.19;72.99
60976;BME280;46849;48.154;17.042;2022-12-18T10:37:06;100646.91;;;1.57;73.27
60976;BME280;46849;48.154;17.042;2022-12-18T10:40:08;100646.06;;;1.43;72.52
60976;BME280;46849;48.154;17.042;2022-12-18T10:43:13;100649.41;;;2.00;71.13
60976;BME280;46849;48.154;17.042;2022-12-18T10:48:54;100642.44;;;2.30;67.57
60976;BME280;46849;48.154;17.042;2022-12-18T10:51:40;100637.16;;;2.49;68.46
60976;BME280;46849;48.154;17.042;2022-12-18T10:54:25;100638.19;;;2.13;74.59
60976;BME280;46849;48.154;17.042;2022-12-18T10:57:38;100640.78;;;2.07;78.29
60976;BME280;46849;48.154;17.042;2022-12-18T11:00:28;100642.44;;;3.55;94.29
60976;BME280;46849;48.154;17.042;2022-12-18T11:03:39;100651.34;;;3.26;81.70
60976;BME280;46849;48.154;17.042;2022-12-18T11:06:24;100636.06;;;2.90;85.54
60976;BME280;46849;48.154;17.042;2022-12-18T11:09:20;100628.06;;;3.17;76.79
60976;BME280;46849;48.154;17.042;2022-12-18T11:12:17;100636.19;;;2.70;72.98
60976;BME280;46849;48.154;17.042;2022-12-18T11:15:01;100637.91;;;2.68;73.10
60976;BME280;46849;48.154;17.042;2022-12-18T11:17:48;100638.00;;;2.52;77.35
60976;BME280;46849;48.154;17.042;2022-12-18T11:20:35;100627.31;;;4.00;100.00
60976;BME280;46849;48.154;17.042;2022-12-18T11:23:22;100627.75;;;5.50;77.76
60976;BME280;46849;48.154;17.042;2022-12-18T11:26:10;100628.47;;;3.70;75.09
60976;BME280;46849;48.154;17.042;2022-12-18T11:29:16;100621.09;;;3.25;68.74
60976;BME280;46849;48.154;17.042;2022-12-18T11:35:10;100618.06;;;3.75;62.52
60976;BME280;46849;48.154;17.042;2022-12-18T11:38:01;100620.97;;;5.88;100.00
60976;BME280;46849;48.154;17.042;2022-12-18T11:43:58;100625.78;;;9.65;78.75
60976;BME280;46849;48.154;17.042;2022-12-18T11:46:50;100625.72;;;6.55;60.18
60976;BME280;46849;48.154;17.042;2022-12-18T11:49:36;100627.66;;;5.04;64.58
60976;BME280;46849;48.154;17.042;2022-12-18T11:52:39;100634.88;;;4.81;59.83
60976;BME280;46849;48.154;17.042;2022-12-18T11:56:15;100634.50;;;3.71;65.42
60976;BME280;46849;48.154;17.042;2022-12-18T11:59:29;100634.56;;;5.03;63.14
60976;BME280;46849;48.154;17.042;2022-12-18T12:02:29;100642.56;;;5.46;59.50
60976;BME280;46849;48.154;17.042;2022-12-18T12:05:31;100638.03;;;6.03;60.36
60976;BME280;46849;48.154;17.042;2022-12-18T12:17:54;100625.16;;;6.81;55.04
60976;BME280;46849;48.154;17.042;2022-12-18T12:26:52;100627.81;;;6.38;65.58
60976;BME280;46849;48.154;17.042;2022-12-18T12:30:03;100623.41;;;5.98;61.24
60976;BME280;46849;48.154;17.042;2022-12-18T12:36:17;100628.13;;;6.24;61.23
60976;BME280;46849;48.154;17.042;2022-12-18T12:39:08;100613.22;;;6.31;63.65
60976;BME280;46849;48.154;17.042;2022-12-18T12:41:56;100622.28;;;6.13;56.72
60976;BME280;46849;48.154;17.042;2022-12-18T12:45:04;100617.44;;;6.37;59.68
60976;BME280;46849;48.154;17.042;2022-12-18T12:47:51;100627.66;;;7.57;61.73
60976;BME280;46849;48.154;17.042;2022-12-18T12:50:37;100618.88;;;7.60;65.24
60976;BME280;46849;48.154;17.042;2022-12-18T12:53:30;100622.59;;;7.84;65.90
60976;BME280;46849;48.154;17.042;2022-12-18T12:56:18;100613.03;;;8.45;56.67
60976;BME280;46849;48.154;17.042;2022-12-18T12:59:30;100614.50;;;6.90;55.15
60976;BME280;46849;48.154;17.042;2022-12-18T13:08:31;100619.28;;;7.44;59.34
60976;BME280;46849;48.154;17.042;2022-12-18T13:11:36;100623.63;;;7.09;56.91
60976;BME280;46849;48.154;17.042;2022-12-18T13:14:40;100624.84;;;7.30;58.79
60976;BME280;46849;48.154;17.042;2022-12-18T13:17:29;100623.16;;;6.93;57.08
60976;BME280;46849;48.154;17.042;2022-12-18T13:20:15;100625.44;;;7.42;58.56
60976;BME280;46849;48.154;17.042;2022-12-18T13:23:27;100641.03;;;7.08;53.69
60976;BME280;46849;48.154;17.042;2022-12-18T13:26:38;100635.88;;;5.80;62.50
60976;BME280;46849;48.154;17.042;2022-12-18T13:29:55;100639.31;;;7.44;58.23
60976;BME280;46849;48.154;17.042;2022-12-18T13:32:40;100645.22;;;7.50;56.16
60976;BME280;46849;48.154;17.042;2022-12-18T13:47:33;100655.84;;;6.25;61.53
60976;BME280;46849;48.154;17.042;2022-12-18T13:50:27;100658.59;;;6.18;59.01
60976;BME280;46849;48.154;17.042;2022-12-18T13:53:35;100661.16;;;7.38;77.79
60976;BME280;46849;48.154;17.042;2022-12-18T13:56:25;100660.09;;;8.74;69.84
60976;BME280;46849;48.154;17.042;2022-12-18T13:59:19;100661.94;;;7.76;63.76
60976;BME280;46849;48.154;17.042;2022-12-18T14:02:14;100662.53;;;6.39;59.13
60976;BME280;46849;48.154;17.042;2022-12-18T14:05:00;100669.38;;;6.43;64.56
60976;BME280;46849;48.154;17.042;2022-12-18T14:07:44;100672.75;;;6.88;61.44
60976;BME280;46849;48.154;17.042;2022-12-18T14:10:29;100671.28;;;5.89;63.60
60976;BME280;46849;48.154;17.042;2022-12-18T14:13:37;100679.91;;;5.39;65.56
60976;BME280;46849;48.154;17.042;2022-12-18T14:16:25;100694.56;;;4.88;63.28
60976;BME280;46849;48.154;17.042;2022-12-18T14:19:17;100692.16;;;5.34;67.88
60976;BME280;46849;48.154;17.042;2022-12-18T14:22:02;100688.06;;;5.18;65.64
60976;BME280;46849;48.154;17.042;2022-12-18T14:25:06;100687.13;;;4.61;73.85
60976;BME280;46849;48.154;17.042;2022-12-18T14:30:52;100690.19;;;4.22;68.56
60976;BME280;46849;48.154;17.042;2022-12-18T14:33:38;100691.88;;;4.23;75.75
60976;BME280;46849;48.154;17.042;2022-12-18T14:36:27;100700.63;;;4.16;76.39
60976;BME280;46849;48.154;17.042;2022-12-18T14:39:16;100710.66;;;3.59;78.92
60976;BME280;46849;48.154;17.042;2022-12-18T14:42:01;100711.97;;;2.92;78.13
60976;BME280;46849;48.154;17.042;2022-12-18T14:44:46;100716.53;;;2.39;77.95
60976;BME280;46849;48.154;17.042;2022-12-18T14:47:31;100721.81;;;2.01;76.44
60976;BME280;46849;48.154;17.042;2022-12-18T14:50:16;100718.34;;;2.12;82.34
60976;BME280;46849;48.154;17.042;2022-12-18T14:53:01;100718.38;;;1.91;79.89
60976;BME280;46849;48.154;17.042;2022-12-18T14:55:47;100717.50;;;2.05;81.72
60976;BME280;46849;48.154;17.042;2022-12-18T14:58:31;100720.13;;;1.56;85.33
60976;BME280;46849;48.154;17.042;2022-12-18T15:01:46;100724.44;;;1.40;82.15
60976;BME280;46849;48.154;17.042;2022-12-18T15:04:35;100721.81;;;1.28;82.78
60976;BME280;46849;48.154;17.042;2022-12-18T15:07:23;100725.28;;;1.38;90.52
60976;BME280;46849;48.154;17.042;2022-12-18T15:18:33;100729.56;;;1.28;88.50
60976;BME280;46849;48.154;17.042;2022-12-18T15:21:20;100738.19;;;1.19;87.62
60976;BME280;46849;48.154;17.042;2022-12-18T15:24:16;100733.91;;;1.32;89.21
60976;BME280;46849;48.154;17.042;2022-12-18T15:27:02;100731.31;;;1.49;92.05
60976;BME280;46849;48.154;17.042;2022-12-18T15:30:22;100748.53;;;1.27;93.45
60976;BME280;46849;48.154;17.042;2022-12-18T15:33:23;100757.88;;;0.87;93.56
60976;BME280;46849;48.154;17.042;2022-12-18T15:36:14;100751.78;;;0.65;90.89
60976;BME280;46849;48.154;17.042;2022-12-18T15:38:59;100744.16;;;0.94;98.83
60976;BME280;46849;48.154;17.042;2022-12-18T15:41:44;100742.34;;;0.64;90.36
60976;BME280;46849;48.154;17.042;2022-12-18T15:44:49;100733.63;;;0.46;89.61
60976;BME280;46849;48.154;17.042;2022-12-18T15:47:33;100729.25;;;0.28;94.84
60976;BME280;46849;48.154;17.042;2022-12-18T15:50:18;100725.81;;;0.29;92.12
60976;BME280;46849;48.154;17.042;2022-12-18T15:53:03;100728.41;;;0.29;94.19
60976;BME280;46849;48.154;17.042;2022-12-18T15:55:47;100728.53;;;0.60;94.63
60976;BME280;46849;48.154;17.042;2022-12-18T15:58:51;100729.50;;;0.92;100.00
60976;BME280;46849;48.154;17.042;2022-12-18T16:01:37;100734.59;;;0.67;88.07
60976;BME280;46849;48.154;17.042;2022-12-18T16:04:22;100730.91;;;0.18;91.90
60976;BME280;46849;48.154;17.042;2022-12-18T16:07:08;100739.13;;;-0.36;92.32
60976;BME280;46849;48.154;17.042;2022-12-18T16:09:55;100735.50;;;-0.60;94.39
60976;BME280;46849;48.154;17.042;2022-12-18T16:12:41;100744.72;;;-0.80;95.00
60976;BME280;46849;48.154;17.042;2022-12-18T16:15:26;100745.19;;;-0.33;95.88